This is the latest recevied weather packets stored in our database for station/object K5VP. If no packets are shown the sender has not sent any weather packets the latest 10 day(s).
| Time | Temp. | Humidity | Pressure | Rain* | Wind** | Luminosity | Snow |
|---|---|---|---|---|---|---|---|
| 1777949625 | 20° C | 55% | 1010.6 hPa | 0 mm | - | - | - |
| 1777949313 | 20° C | 54% | 1010.6 hPa | 0 mm | - | - | - |
| 1777949010 | 20.56° C | 54% | 1010.6 hPa | 0 mm | - | - | - |
| 1777948705 | 20.56° C | 54% | 1010.6 hPa | 0 mm | - | - | - |
| 1777948399 | 20.56° C | 53% | 1010.6 hPa | 0 mm | - | - | - |
| 1777948092 | 20.56° C | 53% | 1010.5 hPa | 0 mm | - | - | - |
| 1777947791 | 20.56° C | 53% | 1010.5 hPa | 0 mm | - | - | - |
| 1777947470 | 20.56° C | 53% | 1010.4 hPa | 0 mm | - | - | - |
| 1777947174 | 20.56° C | 53% | 1010.3 hPa | 0 mm | - | - | - |
| 1777946878 | 20.56° C | 53% | 1010.2 hPa | 0 mm | - | - | - |
| 1777946563 | 20.56° C | 53% | 1010.1 hPa | 0 mm | - | - | - |
| 1777946243 | 21.11° C | 53% | 1010 hPa | 0 mm | - | - | - |
| 1777945927 | 21.11° C | 53% | 1010 hPa | 0 mm | - | - | - |
| 1777945628 | 21.11° C | 53% | 1010 hPa | 0 mm | - | - | - |
| 1777945336 | 21.11° C | 53% | 1009.9 hPa | 0 mm | - | - | - |
| 1777945024 | 21.11° C | 52% | 1009.9 hPa | 0 mm | - | - | - |
| 1777944728 | 21.11° C | 52% | 1009.9 hPa | 0 mm | - | - | - |
| 1777944417 | 21.11° C | 53% | 1009.8 hPa | 0 mm | - | - | - |
| 1777944122 | 21.11° C | 52% | 1009.8 hPa | 0 mm | - | - | - |
| 1777943821 | 21.11° C | 53% | 1009.8 hPa | 0 mm | - | - | - |
| 1777943519 | 21.11° C | 53% | 1009.9 hPa | 0 mm | - | - | - |
| 1777921422 | 27.22° C | 41% | 1011.7 hPa | 0 mm | - | - | - |
| 1777921100 | 27.22° C | 38% | 1011.7 hPa | 0 mm | - | - | - |
| 1777920805 | 27.22° C | 40% | 1011.8 hPa | 0 mm | - | - | - |
| 1777920486 | 27.22° C | 39% | 1012 hPa | 0 mm | - | - | - |
* Rain latest hour (hover to see other rain measurements)
** Current wind speed in m/s (hover to see current wind gust speed)